Palestine, Arkansas
Current Conditions -  °F | °C
As of 11:55 AM on Thursday 30 Oct 2014 (Local Time) from KUTA Reporting Station
Haze Haze  
Wind Chill: 64°   Ceiling: Unl
Heat Index: 64°   Visibility: 5mi
Dew Point: 36°   Wind: 3mph
Humidity: 34%   Direction: 150°SSE
Pressure: 30.16"   Gusts: NA
Location:  34.97°N, 90.9°W
Report Text: KUTA 301655Z AUTO 15003KT 5SM HZ CLR 18/02 A3016 RMK AO2
Loading
Personal Weather Stations






























Interactive Weather Map New forecast layout! Learn more

10-Day Weather Forecast

Advertisements
Track Severe Weather on mobile